Aérodrome :
LOGIN :

S'inscrire | Disclaimer

   EN    FR    IT 

 










Légende :    VFR   VFR Marginal   IFR   IFR Intensif   IFR Très Intensif
Visi : 
Plafond : 
>= 8 km
>= 3000ft
5 à 8 km
1000 à 3000 ft
1500m à 5 km
500 à 1000 ft
800 à 1500m
200 à 500 ft
< 800m
< 200 ft
Symboles :   Orages  Brouillard  Fortes neiges  Fortes précipitations  Vent > 20 kt
SIGMETs :   Divers  Orages  Givrage  Turbulence  Onde Orograph.  Cendres Volcan.






- Altitude de l'aérodrome : 121 ft
- Code IATA : HUY


EGNJ - Humberside

DERNIER METAR :
  • 130850Z 29010KT 8000 -SHRA FEW010 BKN016 OVC022 13/11 Q1013

METARs EXPIRÉS :
  • 130820Z 30010KT 8000 -SHRA FEW010 BKN016 OVC022 13/11 Q1013
  • 130750Z 30010KT 8000 BKN012 OVC020 13/11 Q1013
  • 130720Z 31009KT 8000 BKN012 OVC020 13/10 Q1013
  • 130650Z AUTO 30008KT 9999 BKN012/// OVC016/// 13/10 Q1013
  • 130620Z AUTO 31008KT 9999 OVC014/// 12/10 Q1013
  • 130550Z AUTO 30009KT 9999 BKN015/// OVC023/// 12/10 Q1013
  • 130520Z 30010KT 6000 BKN012 OVC025 12/10 Q1014
  • 130450Z 30009KT 6000 BKN012 OVC025 12/10 Q1014

TAF TAF EGNJ
Valide du 13 à 09h jusqu'au 13 à 18h UTC


130759Z 1309/1318 30009KT 9999 BKN020
TEMPO 1309/1318 6000 -RADZ BKN012
PROB30
TEMPO 1309/1318 4000 RADZ BKN006
ATIS : +44 1652 682 020



MET'MAP, la Météo Aéronautique d'un coup d'oeil ! - Copyright ORBIFLY Décembre 2007 - Disclaimer

ORBIFLY MET'MAP TEAM :

Programmation & Développement : Alexandra Zaïnal
Sur une idée originale de : Baudouin d'Aumeries
Soutien technique & logistique : Manuel Goepfert
Assistance : Marc-Olivier Méhu




SOURCES & CREDITS :

   NOAA